sensor_id;sensor_type;location;lat;lon;timestamp;temperature;humidity
27544;DHT22;17996;51.056;3.656;2023-04-03T00:01:29;4.40;99.90
27544;DHT22;17996;51.056;3.656;2023-04-03T00:03:55;4.40;99.90
27544;DHT22;17996;51.056;3.656;2023-04-03T00:06:22;4.40;99.90
27544;DHT22;17996;51.056;3.656;2023-04-03T00:08:48;4.60;99.90
27544;DHT22;17996;51.056;3.656;2023-04-03T00:11:13;4.40;99.90
27544;DHT22;17996;51.056;3.656;2023-04-03T00:13:39;4.40;99.90
27544;DHT22;17996;51.056;3.656;2023-04-03T00:16:06;4.30;99.90
27544;DHT22;17996;51.056;3.656;2023-04-03T00:18:32;4.30;99.90
27544;DHT22;17996;51.056;3.656;2023-04-03T00:20:58;4.30;99.90
27544;DHT22;17996;51.056;3.656;2023-04-03T00:23:24;4.30;99.90
27544;DHT22;17996;51.056;3.656;2023-04-03T00:25:50;4.20;99.90
27544;DHT22;17996;51.056;3.656;2023-04-03T00:28:16;4.20;99.90
27544;DHT22;17996;51.056;3.656;2023-04-03T00:30:42;4.20;99.90
27544;DHT22;17996;51.056;3.656;2023-04-03T00:33:08;4.20;99.90
27544;DHT22;17996;51.056;3.656;2023-04-03T00:35:35;4.20;99.90
27544;DHT22;17996;51.056;3.656;2023-04-03T00:38:01;4.10;99.90
27544;DHT22;17996;51.056;3.656;2023-04-03T00:40:27;4.20;99.90
27544;DHT22;17996;51.056;3.656;2023-04-03T00:42:58;4.10;99.90
27544;DHT22;17996;51.056;3.656;2023-04-03T00:45:36;4.10;99.90
27544;DHT22;17996;51.056;3.656;2023-04-03T00:48:04;4.10;99.90
27544;DHT22;17996;51.056;3.656;2023-04-03T00:50:32;4.10;99.90
27544;DHT22;17996;51.056;3.656;2023-04-03T00:52:59;4.10;99.90
27544;DHT22;17996;51.056;3.656;2023-04-03T00:55:25;4.00;99.90
27544;DHT22;17996;51.056;3.656;2023-04-03T00:57:52;4.00;99.90
27544;DHT22;17996;51.056;3.656;2023-04-03T01:00:19;3.90;99.90
27544;DHT22;17996;51.056;3.656;2023-04-03T01:02:46;3.90;99.90
27544;DHT22;17996;51.056;3.656;2023-04-03T01:05:12;3.90;99.90
27544;DHT22;17996;51.056;3.656;2023-04-03T01:07:39;3.90;99.90
27544;DHT22;17996;51.056;3.656;2023-04-03T01:10:08;3.90;99.90
27544;DHT22;17996;51.056;3.656;2023-04-03T01:12:37;3.80;99.90
27544;DHT22;17996;51.056;3.656;2023-04-03T01:17:46;3.90;99.90
27544;DHT22;17996;51.056;3.656;2023-04-03T01:25:15;3.80;99.90
27544;DHT22;17996;51.056;3.656;2023-04-03T01:27:41;3.80;99.90
27544;DHT22;17996;51.056;3.656;2023-04-03T01:30:07;3.80;99.90
27544;DHT22;17996;51.056;3.656;2023-04-03T01:32:33;3.80;99.90
27544;DHT22;17996;51.056;3.656;2023-04-03T01:34:59;3.70;99.90
27544;DHT22;17996;51.056;3.656;2023-04-03T01:37:24;3.70;99.90
27544;DHT22;17996;51.056;3.656;2023-04-03T01:39:50;3.80;99.90
27544;DHT22;17996;51.056;3.656;2023-04-03T01:42:16;3.70;99.90
27544;DHT22;17996;51.056;3.656;2023-04-03T01:44:41;3.70;99.90
27544;DHT22;17996;51.056;3.656;2023-04-03T01:47:07;3.70;99.90
27544;DHT22;17996;51.056;3.656;2023-04-03T01:49:33;3.70;99.90
27544;DHT22;17996;51.056;3.656;2023-04-03T01:51:59;3.50;99.90
27544;DHT22;17996;51.056;3.656;2023-04-03T01:54:24;3.40;99.90
27544;DHT22;17996;51.056;3.656;2023-04-03T01:56:50;3.40;99.90
27544;DHT22;17996;51.056;3.656;2023-04-03T01:59:16;3.40;99.90
27544;DHT22;17996;51.056;3.656;2023-04-03T02:01:43;3.50;99.90
27544;DHT22;17996;51.056;3.656;2023-04-03T02:04:11;3.50;99.90
27544;DHT22;17996;51.056;3.656;2023-04-03T02:06:37;3.60;99.90
27544;DHT22;17996;51.056;3.656;2023-04-03T02:09:03;3.60;99.90
27544;DHT22;17996;51.056;3.656;2023-04-03T02:11:30;3.70;99.90
27544;DHT22;17996;51.056;3.656;2023-04-03T02:13:55;3.70;99.90
27544;DHT22;17996;51.056;3.656;2023-04-03T02:16:21;3.70;99.90
27544;DHT22;17996;51.056;3.656;2023-04-03T02:18:47;3.70;99.90
27544;DHT22;17996;51.056;3.656;2023-04-03T02:21:12;3.70;99.90
27544;DHT22;17996;51.056;3.656;2023-04-03T02:23:38;3.70;99.90
27544;DHT22;17996;51.056;3.656;2023-04-03T02:26:09;3.70;99.90
27544;DHT22;17996;51.056;3.656;2023-04-03T02:28:36;3.70;99.90
27544;DHT22;17996;51.056;3.656;2023-04-03T02:31:03;3.60;99.90
27544;DHT22;17996;51.056;3.656;2023-04-03T02:33:30;3.60;99.90
27544;DHT22;17996;51.056;3.656;2023-04-03T02:35:56;3.60;99.90
27544;DHT22;17996;51.056;3.656;2023-04-03T02:38:23;3.60;99.90
27544;DHT22;17996;51.056;3.656;2023-04-03T02:40:49;3.60;99.90
27544;DHT22;17996;51.056;3.656;2023-04-03T02:43:15;3.60;99.90
27544;DHT22;17996;51.056;3.656;2023-04-03T02:45:40;3.60;99.90
27544;DHT22;17996;51.056;3.656;2023-04-03T02:48:06;3.60;99.90
27544;DHT22;17996;51.056;3.656;2023-04-03T02:50:32;3.60;99.90
27544;DHT22;17996;51.056;3.656;2023-04-03T02:52:57;3.60;99.90
27544;DHT22;17996;51.056;3.656;2023-04-03T02:55:23;3.50;99.90
27544;DHT22;17996;51.056;3.656;2023-04-03T02:57:49;3.50;99.90
27544;DHT22;17996;51.056;3.656;2023-04-03T03:00:15;3.50;99.90
27544;DHT22;17996;51.056;3.656;2023-04-03T03:02:40;3.50;99.90
27544;DHT22;17996;51.056;3.656;2023-04-03T03:05:07;3.50;99.90
27544;DHT22;17996;51.056;3.656;2023-04-03T03:07:33;3.40;99.90
27544;DHT22;17996;51.056;3.656;2023-04-03T03:09:59;3.40;99.90
27544;DHT22;17996;51.056;3.656;2023-04-03T03:12:24;3.40;99.90
27544;DHT22;17996;51.056;3.656;2023-04-03T03:14:50;3.40;99.90
27544;DHT22;17996;51.056;3.656;2023-04-03T03:17:16;3.40;99.90
27544;DHT22;17996;51.056;3.656;2023-04-03T03:19:42;3.40;99.90
27544;DHT22;17996;51.056;3.656;2023-04-03T03:22:09;3.40;99.90
27544;DHT22;17996;51.056;3.656;2023-04-03T03:24:34;3.40;99.90
27544;DHT22;17996;51.056;3.656;2023-04-03T03:27:00;3.30;99.90
27544;DHT22;17996;51.056;3.656;2023-04-03T03:29:26;3.40;99.90
27544;DHT22;17996;51.056;3.656;2023-04-03T03:31:51;3.40;99.90
27544;DHT22;17996;51.056;3.656;2023-04-03T03:34:17;3.30;99.90
27544;DHT22;17996;51.056;3.656;2023-04-03T03:36:43;3.40;99.90
27544;DHT22;17996;51.056;3.656;2023-04-03T03:39:09;3.40;99.90
27544;DHT22;17996;51.056;3.656;2023-04-03T03:41:35;3.30;99.90
27544;DHT22;17996;51.056;3.656;2023-04-03T03:44:00;3.30;99.90
27544;DHT22;17996;51.056;3.656;2023-04-03T03:46:26;3.30;99.90
27544;DHT22;17996;51.056;3.656;2023-04-03T03:48:52;3.30;99.90
27544;DHT22;17996;51.056;3.656;2023-04-03T03:51:17;3.30;99.90
27544;DHT22;17996;51.056;3.656;2023-04-03T03:53:43;3.30;99.90
27544;DHT22;17996;51.056;3.656;2023-04-03T03:56:09;3.30;99.90
27544;DHT22;17996;51.056;3.656;2023-04-03T03:58:35;3.30;99.90
27544;DHT22;17996;51.056;3.656;2023-04-03T04:01:04;3.30;99.90
27544;DHT22;17996;51.056;3.656;2023-04-03T04:03:31;3.30;99.90
27544;DHT22;17996;51.056;3.656;2023-04-03T04:05:57;3.30;99.90
27544;DHT22;17996;51.056;3.656;2023-04-03T04:08:23;3.30;99.90
27544;DHT22;17996;51.056;3.656;2023-04-03T04:10:49;3.30;99.90
27544;DHT22;17996;51.056;3.656;2023-04-03T04:13:15;3.30;99.90
27544;DHT22;17996;51.056;3.656;2023-04-03T04:15:42;3.30;99.90
27544;DHT22;17996;51.056;3.656;2023-04-03T04:18:08;3.20;99.90
27544;DHT22;17996;51.056;3.656;2023-04-03T04:20:34;3.30;99.90
27544;DHT22;17996;51.056;3.656;2023-04-03T04:22:59;3.30;99.90
27544;DHT22;17996;51.056;3.656;2023-04-03T04:25:25;3.20;99.90
27544;DHT22;17996;51.056;3.656;2023-04-03T04:27:51;3.20;99.90
27544;DHT22;17996;51.056;3.656;2023-04-03T04:30:16;3.20;99.90
27544;DHT22;17996;51.056;3.656;2023-04-03T04:32:42;3.20;99.90
27544;DHT22;17996;51.056;3.656;2023-04-03T04:35:08;3.20;99.90
27544;DHT22;17996;51.056;3.656;2023-04-03T04:37:33;3.20;99.90
27544;DHT22;17996;51.056;3.656;2023-04-03T04:39:59;3.20;99.90
27544;DHT22;17996;51.056;3.656;2023-04-03T04:42:25;3.20;99.90
27544;DHT22;17996;51.056;3.656;2023-04-03T04:44:51;3.20;99.90
27544;DHT22;17996;51.056;3.656;2023-04-03T04:47:16;3.20;99.90
27544;DHT22;17996;51.056;3.656;2023-04-03T04:49:42;3.20;99.90
27544;DHT22;17996;51.056;3.656;2023-04-03T04:52:08;3.40;99.90
27544;DHT22;17996;51.056;3.656;2023-04-03T04:54:33;3.20;99.90
27544;DHT22;17996;51.056;3.656;2023-04-03T04:56:59;3.20;99.90
27544;DHT22;17996;51.056;3.656;2023-04-03T04:59:25;3.20;99.90
27544;DHT22;17996;51.056;3.656;2023-04-03T05:01:50;3.20;99.90
27544;DHT22;17996;51.056;3.656;2023-04-03T05:04:16;3.20;99.90
27544;DHT22;17996;51.056;3.656;2023-04-03T05:06:42;3.20;99.90
27544;DHT22;17996;51.056;3.656;2023-04-03T05:09:07;3.20;99.90
27544;DHT22;17996;51.056;3.656;2023-04-03T05:11:34;3.20;99.90
27544;DHT22;17996;51.056;3.656;2023-04-03T05:14:00;3.20;99.90
27544;DHT22;17996;51.056;3.656;2023-04-03T05:16:25;3.10;99.90
27544;DHT22;17996;51.056;3.656;2023-04-03T05:18:51;3.10;99.90
27544;DHT22;17996;51.056;3.656;2023-04-03T05:21:17;3.10;99.90
27544;DHT22;17996;51.056;3.656;2023-04-03T05:23:43;3.10;99.90
27544;DHT22;17996;51.056;3.656;2023-04-03T05:26:09;3.10;99.90
27544;DHT22;17996;51.056;3.656;2023-04-03T05:28:35;3.20;99.90
27544;DHT22;17996;51.056;3.656;2023-04-03T05:31:02;3.20;99.90
27544;DHT22;17996;51.056;3.656;2023-04-03T05:33:27;3.20;99.90
27544;DHT22;17996;51.056;3.656;2023-04-03T05:35:53;3.20;99.90
27544;DHT22;17996;51.056;3.656;2023-04-03T05:38:20;3.20;99.90
27544;DHT22;17996;51.056;3.656;2023-04-03T05:40:45;3.20;99.90
27544;DHT22;17996;51.056;3.656;2023-04-03T05:43:11;3.20;99.90
27544;DHT22;17996;51.056;3.656;2023-04-03T05:45:37;3.20;99.90
27544;DHT22;17996;51.056;3.656;2023-04-03T05:48:03;3.20;99.90
27544;DHT22;17996;51.056;3.656;2023-04-03T05:50:29;3.20;99.90
27544;DHT22;17996;51.056;3.656;2023-04-03T05:52:57;3.40;99.90
27544;DHT22;17996;51.056;3.656;2023-04-03T05:55:24;3.20;99.90
27544;DHT22;17996;51.056;3.656;2023-04-03T05:57:49;3.20;99.90
27544;DHT22;17996;51.056;3.656;2023-04-03T06:00:16;3.30;99.90
27544;DHT22;17996;51.056;3.656;2023-04-03T06:02:42;3.30;99.90
27544;DHT22;17996;51.056;3.656;2023-04-03T06:05:08;3.30;99.90
27544;DHT22;17996;51.056;3.656;2023-04-03T06:07:34;3.40;99.90
27544;DHT22;17996;51.056;3.656;2023-04-03T06:10:00;3.40;99.90
27544;DHT22;17996;51.056;3.656;2023-04-03T06:12:27;3.40;99.90
27544;DHT22;17996;51.056;3.656;2023-04-03T06:14:55;3.40;99.90
27544;DHT22;17996;51.056;3.656;2023-04-03T06:17:21;3.40;99.90
27544;DHT22;17996;51.056;3.656;2023-04-03T06:19:46;3.40;99.90
27544;DHT22;17996;51.056;3.656;2023-04-03T06:22:13;3.40;99.90
27544;DHT22;17996;51.056;3.656;2023-04-03T06:24:39;3.50;99.90
27544;DHT22;17996;51.056;3.656;2023-04-03T06:27:04;3.50;99.90
27544;DHT22;17996;51.056;3.656;2023-04-03T06:29:30;3.60;99.90
27544;DHT22;17996;51.056;3.656;2023-04-03T06:31:56;3.60;99.90
27544;DHT22;17996;51.056;3.656;2023-04-03T06:34:22;3.70;99.90
27544;DHT22;17996;51.056;3.656;2023-04-03T06:36:48;3.80;99.90
27544;DHT22;17996;51.056;3.656;2023-04-03T06:39:18;3.80;99.90
27544;DHT22;17996;51.056;3.656;2023-04-03T06:41:46;3.80;99.90
27544;DHT22;17996;51.056;3.656;2023-04-03T06:44:12;3.90;99.90
27544;DHT22;17996;51.056;3.656;2023-04-03T06:46:41;3.90;99.90
27544;DHT22;17996;51.056;3.656;2023-04-03T06:49:07;3.90;99.90
27544;DHT22;17996;51.056;3.656;2023-04-03T06:51:33;4.00;99.90
27544;DHT22;17996;51.056;3.656;2023-04-03T06:53:59;4.00;99.90
27544;DHT22;17996;51.056;3.656;2023-04-03T06:56:26;4.10;99.90
27544;DHT22;17996;51.056;3.656;2023-04-03T06:58:53;4.10;99.90
27544;DHT22;17996;51.056;3.656;2023-04-03T07:01:20;4.10;99.90
27544;DHT22;17996;51.056;3.656;2023-04-03T07:03:47;4.20;99.90
27544;DHT22;17996;51.056;3.656;2023-04-03T07:06:15;4.30;99.90
27544;DHT22;17996;51.056;3.656;2023-04-03T07:08:41;4.40;99.90
27544;DHT22;17996;51.056;3.656;2023-04-03T07:11:08;4.40;99.90
27544;DHT22;17996;51.056;3.656;2023-04-03T07:13:34;4.50;99.90
27544;DHT22;17996;51.056;3.656;2023-04-03T07:16:00;4.60;99.90
27544;DHT22;17996;51.056;3.656;2023-04-03T07:18:26;4.60;99.90
27544;DHT22;17996;51.056;3.656;2023-04-03T07:20:52;4.70;99.90
27544;DHT22;17996;51.056;3.656;2023-04-03T07:23:18;4.70;99.90
27544;DHT22;17996;51.056;3.656;2023-04-03T07:25:49;4.80;99.90
27544;DHT22;17996;51.056;3.656;2023-04-03T07:28:15;4.80;99.90
27544;DHT22;17996;51.056;3.656;2023-04-03T07:30:47;5.00;99.90
27544;DHT22;17996;51.056;3.656;2023-04-03T07:33:15;4.90;99.90
27544;DHT22;17996;51.056;3.656;2023-04-03T07:35:41;5.00;99.90
27544;DHT22;17996;51.056;3.656;2023-04-03T07:38:08;5.00;99.90
27544;DHT22;17996;51.056;3.656;2023-04-03T07:40:33;5.00;99.90
27544;DHT22;17996;51.056;3.656;2023-04-03T07:42:59;5.10;99.90
27544;DHT22;17996;51.056;3.656;2023-04-03T07:45:25;5.20;99.90
27544;DHT22;17996;51.056;3.656;2023-04-03T07:47:51;5.30;99.90
27544;DHT22;17996;51.056;3.656;2023-04-03T07:50:17;5.20;99.90
27544;DHT22;17996;51.056;3.656;2023-04-03T07:52:43;5.40;99.90
27544;DHT22;17996;51.056;3.656;2023-04-03T07:55:09;5.30;99.90
27544;DHT22;17996;51.056;3.656;2023-04-03T07:57:35;5.30;99.90
27544;DHT22;17996;51.056;3.656;2023-04-03T08:00:01;5.40;99.90
27544;DHT22;17996;51.056;3.656;2023-04-03T08:02:27;5.40;99.90
27544;DHT22;17996;51.056;3.656;2023-04-03T08:04:52;5.50;99.90
27544;DHT22;17996;51.056;3.656;2023-04-03T08:07:18;5.50;99.90
27544;DHT22;17996;51.056;3.656;2023-04-03T08:09:44;5.60;99.90
27544;DHT22;17996;51.056;3.656;2023-04-03T08:12:10;5.50;99.90
27544;DHT22;17996;51.056;3.656;2023-04-03T08:14:36;5.80;99.90
27544;DHT22;17996;51.056;3.656;2023-04-03T08:17:02;5.80;99.90
27544;DHT22;17996;51.056;3.656;2023-04-03T08:19:30;5.70;99.90
27544;DHT22;17996;51.056;3.656;2023-04-03T08:21:56;5.80;99.90
27544;DHT22;17996;51.056;3.656;2023-04-03T08:24:24;5.80;99.90
27544;DHT22;17996;51.056;3.656;2023-04-03T08:26:50;6.10;99.90
27544;DHT22;17996;51.056;3.656;2023-04-03T08:29:16;6.00;99.90
27544;DHT22;17996;51.056;3.656;2023-04-03T08:31:42;6.00;99.90
27544;DHT22;17996;51.056;3.656;2023-04-03T08:34:08;6.20;99.90
27544;DHT22;17996;51.056;3.656;2023-04-03T08:36:34;6.20;99.90
27544;DHT22;17996;51.056;3.656;2023-04-03T08:39:00;6.10;99.90
27544;DHT22;17996;51.056;3.656;2023-04-03T08:41:39;6.30;99.90
27544;DHT22;17996;51.056;3.656;2023-04-03T08:50:00;6.20;99.90
27544;DHT22;17996;51.056;3.656;2023-04-03T08:52:48;6.30;99.90
27544;DHT22;17996;51.056;3.656;2023-04-03T08:55:37;6.20;99.90
27544;DHT22;17996;51.056;3.656;2023-04-03T08:58:09;6.30;99.90
27544;DHT22;17996;51.056;3.656;2023-04-03T09:00:44;6.40;99.90
27544;DHT22;17996;51.056;3.656;2023-04-03T09:03:15;6.50;99.90
27544;DHT22;17996;51.056;3.656;2023-04-03T09:05:51;6.50;99.90
27544;DHT22;17996;51.056;3.656;2023-04-03T09:08:21;6.60;99.90
27544;DHT22;17996;51.056;3.656;2023-04-03T09:10:47;6.60;99.90
27544;DHT22;17996;51.056;3.656;2023-04-03T09:13:23;6.70;99.90
27544;DHT22;17996;51.056;3.656;2023-04-03T09:15:50;6.70;99.90
27544;DHT22;17996;51.056;3.656;2023-04-03T09:18:21;6.60;99.90
27544;DHT22;17996;51.056;3.656;2023-04-03T09:21:03;6.70;99.90
27544;DHT22;17996;51.056;3.656;2023-04-03T09:23:30;6.70;99.90
27544;DHT22;17996;51.056;3.656;2023-04-03T09:26:02;6.70;99.90
27544;DHT22;17996;51.056;3.656;2023-04-03T09:28:34;6.60;99.90
27544;DHT22;17996;51.056;3.656;2023-04-03T09:31:01;6.60;99.90
27544;DHT22;17996;51.056;3.656;2023-04-03T09:33:30;6.70;99.90
27544;DHT22;17996;51.056;3.656;2023-04-03T09:35:55;6.80;99.90
27544;DHT22;17996;51.056;3.656;2023-04-03T09:38:22;6.80;99.90
27544;DHT22;17996;51.056;3.656;2023-04-03T09:41:13;6.90;99.90
27544;DHT22;17996;51.056;3.656;2023-04-03T09:43:52;6.80;99.90
27544;DHT22;17996;51.056;3.656;2023-04-03T09:46:32;6.60;99.90
27544;DHT22;17996;51.056;3.656;2023-04-03T09:49:01;6.70;99.90
27544;DHT22;17996;51.056;3.656;2023-04-03T09:51:28;6.70;99.90
27544;DHT22;17996;51.056;3.656;2023-04-03T09:53:55;6.80;99.90
27544;DHT22;17996;51.056;3.656;2023-04-03T09:56:28;6.80;99.90
27544;DHT22;17996;51.056;3.656;2023-04-03T10:01:37;6.70;99.90
27544;DHT22;17996;51.056;3.656;2023-04-03T10:04:05;6.80;99.90
27544;DHT22;17996;51.056;3.656;2023-04-03T10:06:33;7.00;99.90
27544;DHT22;17996;51.056;3.656;2023-04-03T10:09:23;6.90;99.90
27544;DHT22;17996;51.056;3.656;2023-04-03T10:12:07;7.00;99.90
27544;DHT22;17996;51.056;3.656;2023-04-03T10:14:39;7.10;99.90
27544;DHT22;17996;51.056;3.656;2023-04-03T10:22:28;7.30;99.90
27544;DHT22;17996;51.056;3.656;2023-04-03T10:30:32;7.30;99.90
27544;DHT22;17996;51.056;3.656;2023-04-03T10:40:43;7.60;99.90
27544;DHT22;17996;51.056;3.656;2023-04-03T10:46:06;7.50;99.90
27544;DHT22;17996;51.056;3.656;2023-04-03T10:49:05;7.50;99.90
27544;DHT22;17996;51.056;3.656;2023-04-03T10:51:45;7.50;99.90
27544;DHT22;17996;51.056;3.656;2023-04-03T10:54:25;7.50;99.90
27544;DHT22;17996;51.056;3.656;2023-04-03T10:56:57;7.50;99.90
27544;DHT22;17996;51.056;3.656;2023-04-03T11:02:06;7.60;99.90
27544;DHT22;17996;51.056;3.656;2023-04-03T11:04:36;7.70;99.90
27544;DHT22;17996;51.056;3.656;2023-04-03T11:07:16;7.90;99.90
27544;DHT22;17996;51.056;3.656;2023-04-03T11:09:47;7.80;99.90
27544;DHT22;17996;51.056;3.656;2023-04-03T11:12:43;8.00;99.90
27544;DHT22;17996;51.056;3.656;2023-04-03T11:15:16;8.10;99.90
27544;DHT22;17996;51.056;3.656;2023-04-03T11:18:11;8.10;99.90
27544;DHT22;17996;51.056;3.656;2023-04-03T11:20:43;8.10;99.90
27544;DHT22;17996;51.056;3.656;2023-04-03T11:23:26;8.20;99.90
27544;DHT22;17996;51.056;3.656;2023-04-03T11:26:13;8.20;99.90
27544;DHT22;17996;51.056;3.656;2023-04-03T11:28:40;8.20;99.90
27544;DHT22;17996;51.056;3.656;2023-04-03T11:34:05;8.40;99.90
27544;DHT22;17996;51.056;3.656;2023-04-03T11:36:42;8.40;99.90
27544;DHT22;17996;51.056;3.656;2023-04-03T11:39:34;8.50;99.90
27544;DHT22;17996;51.056;3.656;2023-04-03T11:44:45;8.40;99.90
27544;DHT22;17996;51.056;3.656;2023-04-03T11:47:11;8.30;99.90
27544;DHT22;17996;51.056;3.656;2023-04-03T11:49:59;8.30;99.90
27544;DHT22;17996;51.056;3.656;2023-04-03T12:16:24;8.70;99.90
27544;DHT22;17996;51.056;3.656;2023-04-03T12:21:23;8.60;99.90
27544;DHT22;17996;51.056;3.656;2023-04-03T12:31:56;8.90;99.90
27544;DHT22;17996;51.056;3.656;2023-04-03T12:45:23;8.90;99.90
27544;DHT22;17996;51.056;3.656;2023-04-03T12:47:51;8.90;99.90
27544;DHT22;17996;51.056;3.656;2023-04-03T12:50:31;8.90;99.90
27544;DHT22;17996;51.056;3.656;2023-04-03T12:53:21;9.00;99.90
27544;DHT22;17996;51.056;3.656;2023-04-03T12:55:54;9.00;99.90
27544;DHT22;17996;51.056;3.656;2023-04-03T12:58:25;8.90;99.90
27544;DHT22;17996;51.056;3.656;2023-04-03T13:01:10;9.00;99.90
27544;DHT22;17996;51.056;3.656;2023-04-03T13:03:39;9.00;99.90
27544;DHT22;17996;51.056;3.656;2023-04-03T13:06:05;8.90;99.90
27544;DHT22;17996;51.056;3.656;2023-04-03T13:08:32;8.90;99.90
27544;DHT22;17996;51.056;3.656;2023-04-03T13:11:09;8.90;99.90
27544;DHT22;17996;51.056;3.656;2023-04-03T13:13:36;9.00;99.90
27544;DHT22;17996;51.056;3.656;2023-04-03T13:16:11;9.10;99.90
27544;DHT22;17996;51.056;3.656;2023-04-03T13:18:37;9.10;99.90
27544;DHT22;17996;51.056;3.656;2023-04-03T13:21:07;9.20;99.90
27544;DHT22;17996;51.056;3.656;2023-04-03T13:23:39;9.40;99.90
27544;DHT22;17996;51.056;3.656;2023-04-03T13:26:06;9.30;99.90
27544;DHT22;17996;51.056;3.656;2023-04-03T13:28:33;9.50;99.90
27544;DHT22;17996;51.056;3.656;2023-04-03T13:36:41;9.30;99.90
27544;DHT22;17996;51.056;3.656;2023-04-03T13:41:46;9.30;99.90
27544;DHT22;17996;51.056;3.656;2023-04-03T13:44:26;9.30;99.90
27544;DHT22;17996;51.056;3.656;2023-04-03T13:47:20;9.30;99.90
27544;DHT22;17996;51.056;3.656;2023-04-03T13:52:50;9.50;99.90
27544;DHT22;17996;51.056;3.656;2023-04-03T13:55:27;9.60;99.90
27544;DHT22;17996;51.056;3.656;2023-04-03T14:01:08;9.70;99.90
27544;DHT22;17996;51.056;3.656;2023-04-03T14:03:22;9.70;99.90
27544;DHT22;17996;51.056;3.656;2023-04-03T14:05:48;9.80;99.90
27544;DHT22;17996;51.056;3.656;2023-04-03T14:08:13;9.80;99.90
27544;DHT22;17996;51.056;3.656;2023-04-03T14:10:40;9.90;99.90
27544;DHT22;17996;51.056;3.656;2023-04-03T14:13:06;10.00;99.90
27544;DHT22;17996;51.056;3.656;2023-04-03T14:15:32;10.30;99.90
27544;DHT22;17996;51.056;3.656;2023-04-03T14:17:58;10.30;99.90
27544;DHT22;17996;51.056;3.656;2023-04-03T14:20:26;10.30;99.90
27544;DHT22;17996;51.056;3.656;2023-04-03T14:22:53;10.20;99.90
27544;DHT22;17996;51.056;3.656;2023-04-03T14:25:20;10.30;99.90
27544;DHT22;17996;51.056;3.656;2023-04-03T14:27:50;10.60;99.90
27544;DHT22;17996;51.056;3.656;2023-04-03T14:30:26;10.70;99.90
27544;DHT22;17996;51.056;3.656;2023-04-03T14:32:52;10.70;99.40
27544;DHT22;17996;51.056;3.656;2023-04-03T14:35:18;10.80;99.90
27544;DHT22;17996;51.056;3.656;2023-04-03T14:37:44;11.10;99.90
27544;DHT22;17996;51.056;3.656;2023-04-03T14:40:15;11.40;99.90
27544;DHT22;17996;51.056;3.656;2023-04-03T14:42:41;11.60;99.80
27544;DHT22;17996;51.056;3.656;2023-04-03T14:45:10;11.60;99.80
27544;DHT22;17996;51.056;3.656;2023-04-03T14:47:44;11.70;99.30
27544;DHT22;17996;51.056;3.656;2023-04-03T14:50:18;11.90;99.50
27544;DHT22;17996;51.056;3.656;2023-04-03T14:52:44;12.00;96.40
27544;DHT22;17996;51.056;3.656;2023-04-03T14:55:13;12.30;98.50
27544;DHT22;17996;51.056;3.656;2023-04-03T14:57:40;12.70;98.10
27544;DHT22;17996;51.056;3.656;2023-04-03T15:00:11;12.80;96.40
27544;DHT22;17996;51.056;3.656;2023-04-03T15:02:38;13.30;97.40
27544;DHT22;17996;51.056;3.656;2023-04-03T15:05:07;13.30;95.90
27544;DHT22;17996;51.056;3.656;2023-04-03T15:07:36;13.30;92.60
27544;DHT22;17996;51.056;3.656;2023-04-03T15:12:41;13.50;91.70
27544;DHT22;17996;51.056;3.656;2023-04-03T15:15:07;13.60;92.50
27544;DHT22;17996;51.056;3.656;2023-04-03T15:17:34;13.80;92.20
27544;DHT22;17996;51.056;3.656;2023-04-03T15:20:01;14.00;90.30
27544;DHT22;17996;51.056;3.656;2023-04-03T15:22:27;14.40;90.00
27544;DHT22;17996;51.056;3.656;2023-04-03T15:24:52;14.30;84.20
27544;DHT22;17996;51.056;3.656;2023-04-03T15:27:18;14.10;88.30
27544;DHT22;17996;51.056;3.656;2023-04-03T15:29:45;14.60;89.00
27544;DHT22;17996;51.056;3.656;2023-04-03T15:32:11;14.50;87.40
27544;DHT22;17996;51.056;3.656;2023-04-03T15:34:38;14.40;80.80
27544;DHT22;17996;51.056;3.656;2023-04-03T15:37:04;13.80;84.10
27544;DHT22;17996;51.056;3.656;2023-04-03T15:39:31;13.60;81.70
27544;DHT22;17996;51.056;3.656;2023-04-03T15:41:58;13.40;84.20
27544;DHT22;17996;51.056;3.656;2023-04-03T15:44:31;13.30;86.10
27544;DHT22;17996;51.056;3.656;2023-04-03T15:46:58;13.60;86.10
27544;DHT22;17996;51.056;3.656;2023-04-03T15:49:24;14.20;86.00
27544;DHT22;17996;51.056;3.656;2023-04-03T15:51:49;14.50;84.20
27544;DHT22;17996;51.056;3.656;2023-04-03T15:54:16;15.00;87.50
27544;DHT22;17996;51.056;3.656;2023-04-03T15:56:41;15.30;85.10
27544;DHT22;17996;51.056;3.656;2023-04-03T15:59:07;15.30;85.40
27544;DHT22;17996;51.056;3.656;2023-04-03T16:01:33;14.90;85.30
27544;DHT22;17996;51.056;3.656;2023-04-03T16:03:58;14.50;81.10
27544;DHT22;17996;51.056;3.656;2023-04-03T16:06:25;14.70;83.30
27544;DHT22;17996;51.056;3.656;2023-04-03T16:08:51;14.40;82.50
27544;DHT22;17996;51.056;3.656;2023-04-03T16:11:17;14.50;80.50
27544;DHT22;17996;51.056;3.656;2023-04-03T16:13:42;14.20;82.10
27544;DHT22;17996;51.056;3.656;2023-04-03T16:16:08;13.60;82.20
27544;DHT22;17996;51.056;3.656;2023-04-03T16:18:35;13.50;82.60
27544;DHT22;17996;51.056;3.656;2023-04-03T16:21:01;13.30;82.00
27544;DHT22;17996;51.056;3.656;2023-04-03T16:23:27;13.30;83.60
27544;DHT22;17996;51.056;3.656;2023-04-03T16:25:53;13.60;81.80
27544;DHT22;17996;51.056;3.656;2023-04-03T16:28:18;13.70;82.40
27544;DHT22;17996;51.056;3.656;2023-04-03T16:30:45;13.90;79.20
27544;DHT22;17996;51.056;3.656;2023-04-03T16:33:12;13.90;80.40
27544;DHT22;17996;51.056;3.656;2023-04-03T16:35:38;13.40;78.60
27544;DHT22;17996;51.056;3.656;2023-04-03T16:38:05;13.30;80.40
27544;DHT22;17996;51.056;3.656;2023-04-03T16:40:31;13.60;80.80
27544;DHT22;17996;51.056;3.656;2023-04-03T16:42:59;13.50;82.80
27544;DHT22;17996;51.056;3.656;2023-04-03T16:45:25;13.30;81.70
27544;DHT22;17996;51.056;3.656;2023-04-03T16:47:50;12.90;80.80
27544;DHT22;17996;51.056;3.656;2023-04-03T16:50:16;12.80;81.90
27544;DHT22;17996;51.056;3.656;2023-04-03T16:52:42;12.70;83.20
27544;DHT22;17996;51.056;3.656;2023-04-03T16:55:08;12.60;84.20
27544;DHT22;17996;51.056;3.656;2023-04-03T16:57:33;12.70;86.10
27544;DHT22;17996;51.056;3.656;2023-04-03T16:59:59;12.60;85.20
27544;DHT22;17996;51.056;3.656;2023-04-03T17:02:25;12.40;84.90
27544;DHT22;17996;51.056;3.656;2023-04-03T17:04:52;12.30;84.50
27544;DHT22;17996;51.056;3.656;2023-04-03T17:07:23;12.10;85.00
27544;DHT22;17996;51.056;3.656;2023-04-03T17:09:49;11.90;85.90
27544;DHT22;17996;51.056;3.656;2023-04-03T17:12:15;11.70;82.60
27544;DHT22;17996;51.056;3.656;2023-04-03T17:14:42;11.40;83.60
27544;DHT22;17996;51.056;3.656;2023-04-03T17:17:08;11.20;84.40
27544;DHT22;17996;51.056;3.656;2023-04-03T17:19:35;11.10;84.00
27544;DHT22;17996;51.056;3.656;2023-04-03T17:22:01;11.10;88.20
27544;DHT22;17996;51.056;3.656;2023-04-03T17:24:27;10.80;84.70
27544;DHT22;17996;51.056;3.656;2023-04-03T17:26:52;10.80;86.80
27544;DHT22;17996;51.056;3.656;2023-04-03T17:29:18;10.90;88.30
27544;DHT22;17996;51.056;3.656;2023-04-03T17:31:44;10.90;91.00
27544;DHT22;17996;51.056;3.656;2023-04-03T17:34:09;10.70;90.20
27544;DHT22;17996;51.056;3.656;2023-04-03T17:36:38;10.70;90.50